Language selection

Features

My Weather Profile Weather Topics  | 

Atlantic - Newfoundland: Past 24 Hour Conditions

 

Banquereau - 44139

08:00 AM AST 24 November 2020Buoy position: 44.27N 57.08W
Disclaimer

This table is a summary of hourly weather conditions for the past 24 hours.
Please note that these observations might not always be representative of weather conditions over their associated marine area.

Date / Time
(AST)
Wind(knots) Wave height(m) Wave period(s) Pressure(kPa) Air tempC) Water tempC)
24 November 2020
8:00 W 23 gust 29 5.7 11.0 99.7 13 11
7:00 SW 25 gust 35 5.1 10.0 99.5 15 11
6:00 SW 23 gust 29 5.3 10.0 99.7 14 11
5:00 S 37 gust 46 5.2 9.0 99.8 15 11
4:00 S 33 gust 39 4.8 10.0 100.0 15 11
3:00 S 29 gust 37 4.3 10.0 100.4 14 11
2:00 S 29 gust 35 4.6 9.0 100.7 14 11
1:00 S 29 gust 35 4.3 9.0 100.9 13 11
0:00 S 29 gust 37 3.8 8.0 101.2 13 11
23 November 2020
23:00 S 29 gust 35 3.3 8.0 101.5 13 11
22:00 S 29 gust 35 3.5 7.0 101.7 13 11
21:00 S 27 gust 33 2.6 7.0 101.9 13 11
20:00 S 25 gust 31 2.4 6.0 102.1 13 11
19:00 S 25 gust 31 2.3 6.0 102.3 12 11
18:00 S 23 gust 27 2.3 6.0 102.4 12 11
17:00 SSE 23 gust 29 2.0 6.0 102.5 12 11
16:00 S 23 gust 27 1.9 6.0 102.6 11 11
15:00 S 23 gust 27 1.8 6.0 102.7 11 11
14:00 SSE 22 gust 27 1.5 5.0 102.8 10 11
13:00 SSE 19 gust 23 1.3 5.0 103.0 10 11
12:00 SSE 19 gust 23 1.1 4.0 103.2 9 11
11:00 SSE 17 gust 22 1.0 4.0 103.3 8 11
10:00 SSE 16 gust 22 1.0 8.0 103.4 7 11
9:00 SE 13 gust 17 0.9 8.0 103.5 7 11
8:00 SE 13 gust 19 0.9 8.0 103.6 6 11

Zoom-in to make a selection

Map of Atlantic - Newfoundland marine weather areas Banquereau - 44139 East Chedabucto Bay - 44488 West Chedabucto Bay - 44489 Blanc-Sablon Airport Cap Whittle Chevery Natashquan Airport Heath Point Îles de la Madeleine Airport Miscou Island Eskasoni (First Nations) Grand Étang Ingonish Beach North Mountain St.Paul Island J.A. Douglas McCurdy Sydney Airport Charlottetown Airport East Point North Cape Argentia Bonavista Burgeo Cape Race Corner Brook Daniel's Harbour Englee Ferolle Point La Scie Port aux Basques Rocky Harbour Sagona Island St. Anthony Airport St. John's Int'l Airport St. Lawrence Stephenville Airport Twillingate Winterland Branch Hill Wreckhouse Grates Cove Pool's Island Marticot Island Long Pond Cartwright Airport Mary's Harbour
Legend:
buoy Buoy
land station Land Station

Atlantic - Newfoundland Area

Another Region

What we are doing

Features

Heading to Banff or Jasper National Parks this winter?

Go prepared with Highway 93 forecasts. North and South highway regions are available in the Alberta text forecast bulletin. (Photo by: Natalie Anderson)

Date modified: